Terminal Aerodrome Forecast
Issued by NWS Upton, NY

Home | Current Version | Previous Version | Text Only | Print | Product List | Glossary On
Versions: 1 2 3 4 5 6 7 8 9 10 11 12 13 14 15 16 17 18 19 20 21 22 23 24 25 26 27 28 29 30 31 32 33 34 35 36 37 38
000
FTUS41 KOKX 041100
TAFLGA
TAF
KLGA 041137Z 0412/0512 23008KT 6SM -RA BR BKN015
      TEMPO 0412/0416 5SM -RA BR SCT015 BKN060
     FM041600 24008KT 6SM -RA BR BKN015 BKN050
     FM050200 28008KT 4SM -RA BR OVC008
     FM050600 33008KT 2SM -SN BR OVC008
     FM051000 34012G18KT 1SM -SN BR SCT008 OVC020=

USA.gov is the U.S. government's official web portal to all federal, state and local government web resources and services.